Time;durP1;ratioP1;P1;durP2;ratioP2;P2;SDS_P1;SDS_P2;PMS_P1;PMS_P2;Temp;Humidity;BMP_temperature;BMP_pressure;BME280_temperature;BME280_humidity;BME280_pressure;Samples;Min_cycle;Max_cycle;Signal;HPM_P1;HPM_P2
2022/03/25 00:00:42;;;;;;;70.15;41.65;;;;;;;;;;5036674;28;20047;-80
2022/03/25 00:03:15;;;;;;;79.82;45.40;;;;;;;;;;5034440;28;20045;-80
2022/03/25 00:05:41;;;;;;;75.05;47.30;;;;;;;;;;5017268;28;20128;-80
2022/03/25 00:08:08;;;;;;;66.03;44.35;;;;;;;;;;5028911;28;20136;-80
2022/03/25 00:10:34;;;;;;;74.65;45.95;;;;;;;;;;4996459;28;20099;-80
2022/03/25 00:13:02;;;;;;;74.43;45.53;;;;;;;;;;5012520;28;20069;-80
2022/03/25 00:15:31;;;;;;;77.13;44.75;;;;;;;;;;5021414;28;20125;-80
2022/03/25 00:17:57;;;;;;;71.07;43.63;;;;;;;;;;5018401;28;20050;-80
2022/03/25 00:20:26;;;;;;;70.85;41.35;;;;;;;;;;5005505;28;20116;-81
2022/03/25 00:22:55;;;;;;;68.97;41.90;;;;;;;;;;5000417;28;20415;-80
2022/03/25 00:25:21;;;;;;;58.55;37.50;;;;;;;;;;5028148;28;20474;-80
2022/03/25 00:27:47;;;;;;;60.72;39.28;;;;;;;;;;5021407;28;20067;-80
2022/03/25 00:30:13;;;;;;;59.42;37.53;;;;;;;;;;5030215;28;20041;-80
2022/03/25 00:32:42;;;;;;;55.83;36.00;;;;;;;;;;5000113;28;20139;-80
2022/03/25 00:35:12;;;;;;;61.90;36.55;;;;;;;;;;5029885;28;20045;-80
2022/03/25 00:37:49;;;;;;;60.95;38.17;;;6.10;99.90;;;;;;5015369;28;20049;-80
2022/03/25 00:40:15;;;;;;;63.10;39.92;;;5.60;99.90;;;;;;5032312;28;20486;-79
2022/03/25 00:42:41;;;;;;;60.10;36.80;;;5.40;99.90;;;;;;5015611;28;20052;-79
2022/03/25 00:45:08;;;;;;;61.92;39.33;;;5.40;99.90;;;;;;4998955;28;20053;-80
2022/03/25 00:47:36;;;;;;;53.00;36.05;;;5.40;99.90;;;;;;5006933;28;20057;-80
2022/03/25 00:50:03;;;;;;;60.17;38.90;;;;;;;;;;5018106;28;20603;-80
2022/03/25 00:52:29;;;;;;;63.45;40.22;;;;;;;;;;4997444;28;20087;-80
2022/03/25 00:54:55;;;;;;;62.60;38.03;;;;;;;;;;5021769;28;20052;-80
2022/03/25 00:57:22;;;;;;;53.03;34.50;;;;;;;;;;5042430;28;20103;-80
2022/03/25 00:59:51;;;;;;;54.85;36.72;;;;;;;;;;5037053;28;20042;-80
2022/03/25 01:02:17;;;;;;;55.83;35.60;;;;;;;;;;5020913;28;20062;-79
2022/03/25 01:04:44;;;;;;;53.58;35.42;;;;;;;;;;5026570;28;20050;-80
2022/03/25 01:07:13;;;;;;;53.63;33.15;;;;;;;;;;5015229;28;20405;-80
2022/03/25 01:09:47;;;;;;;51.08;32.95;;;5.30;99.90;;;;;;5028159;28;20077;-80
2022/03/25 01:12:16;;;;;;;55.47;35.22;;;5.10;99.90;;;;;;4993650;28;20167;-80
2022/03/25 01:14:42;;;;;;;56.28;35.30;;;5.20;99.90;;;;;;4995046;28;20087;-80
2022/03/25 01:17:08;;;;;;;49.13;32.50;;;5.10;99.90;;;;;;4997896;28;20065;-80
2022/03/25 01:19:34;;;;;;;48.92;32.05;;;5.10;99.90;;;;;;5016204;28;20062;-80
2022/03/25 01:22:07;;;;;;;50.75;32.90;;;5.10;99.90;;;;;;5032759;28;20103;-79
2022/03/25 01:24:35;;;;;;;50.15;32.22;;;5.10;99.90;;;;;;5025531;28;20140;-80
2022/03/25 01:27:04;;;;;;;45.50;29.23;;;5.00;99.90;;;;;;5032579;28;20132;-84
2022/03/25 01:29:33;;;;;;;46.70;30.40;;;5.10;99.90;;;;;;5015961;28;20046;-83
2022/03/25 01:31:59;;;;;;;45.35;31.00;;;5.10;99.90;;;;;;4991655;28;20060;-83
2022/03/25 01:34:25;;;;;;;43.83;29.80;;;5.10;99.90;;;;;;5020202;28;20061;-83
2022/03/25 01:36:51;;;;;;;45.75;29.27;;;5.20;99.90;;;;;;5014427;28;20053;-79
2022/03/25 01:39:16;;;;;;;40.25;28.40;;;5.10;99.90;;;;;;5006273;28;20061;-79
2022/03/25 01:41:47;;;;;;;45.63;29.13;;;5.00;99.90;;;;;;5010569;28;20049;-79
2022/03/25 01:44:23;;;;;;;40.30;26.58;;;5.00;99.90;;;;;;5014367;28;20071;-79
2022/03/25 01:46:56;;;;;;;38.55;25.38;;;4.90;99.90;;;;;;5032351;28;20060;-79
2022/03/25 01:49:23;;;;;;;43.05;28.08;;;4.90;99.90;;;;;;5022390;28;20056;-79
2022/03/25 01:51:52;;;;;;;38.38;26.80;;;4.90;99.90;;;;;;5014653;28;20060;-79
2022/03/25 01:54:27;;;;;;;41.60;26.67;;;4.90;99.90;;;;;;5029727;28;20053;-81
2022/03/25 01:57:02;;;;;;;37.40;26.08;;;4.90;99.90;;;;;;5030576;28;20045;-80
2022/03/25 01:59:29;;;;;;;41.67;25.60;;;4.90;99.90;;;;;;5030525;28;20042;-80
2022/03/25 02:02:16;;;;;;;38.72;27.70;;;4.80;99.90;;;;;;5016251;28;20045;-80
2022/03/25 02:04:42;;;;;;;38.38;25.08;;;;;;;;;;4997600;28;20095;-80
2022/03/25 02:07:09;;;;;;;35.28;25.05;;;;;;;;;;5012876;28;20156;-80
2022/03/25 02:09:40;;;;;;;45.85;28.42;;;4.80;99.90;;;;;;4995955;28;20117;-80
2022/03/25 02:12:22;;;;;;;39.60;26.48;;;4.70;99.90;;;;;;5005515;28;20049;-80
2022/03/25 02:15:05;;;;;;;40.15;26.33;;;4.70;99.90;;;;;;5008868;28;20053;-80
2022/03/25 02:17:34;;;;;;;29.33;21.92;;;4.60;99.90;;;;;;4994087;28;20351;-80
2022/03/25 02:20:08;;;;;;;35.00;23.65;;;4.60;99.90;;;;;;5014867;28;20068;-80
2022/03/25 02:22:37;;;;;;;34.58;23.38;;;4.50;99.90;;;;;;5050408;28;20461;-80
2022/03/25 02:25:09;;;;;;;32.30;23.38;;;;;;;;;;5017212;28;20574;-80
2022/03/25 02:27:36;;;;;;;34.53;23.60;;;;;;;;;;5019990;28;20124;-80
2022/03/25 02:30:07;;;;;;;38.70;27.20;;;;;;;;;;5029375;28;20057;-79
2022/03/25 02:32:39;;;;;;;36.83;25.00;;;;;;;;;;5016383;28;20052;-80
2022/03/25 02:35:06;;;;;;;37.13;25.50;;;;;;;;;;5029334;28;20104;-80
2022/03/25 02:37:35;;;;;;;35.72;24.92;;;;;;;;;;5029562;28;20049;-80
2022/03/25 02:40:03;;;;;;;36.72;23.55;;;;;;;;;;4987200;28;20049;-80
2022/03/25 02:42:29;;;;;;;33.72;23.17;;;;;;;;;;5010951;28;20055;-80
2022/03/25 02:44:58;;;;;;;35.28;24.08;;;;;;;;;;4996130;28;20068;-80
2022/03/25 02:47:26;;;;;;;41.10;25.13;;;;;;;;;;4989301;28;20049;-80
2022/03/25 02:49:54;;;;;;;34.53;24.92;;;;;;;;;;5044382;28;20061;-79
2022/03/25 02:52:20;;;;;;;31.58;23.30;;;4.50;99.90;;;;;;5020668;28;20111;-80
2022/03/25 02:54:56;;;;;;;36.95;24.20;;;4.40;99.90;;;;;;4982880;28;20441;-80
2022/03/25 02:57:22;;;;;;;35.40;25.90;;;4.40;99.90;;;;;;4997562;28;20362;-80
2022/03/25 02:59:48;;;;;;;38.20;25.10;;;4.40;99.90;;;;;;5002869;28;20046;-80
2022/03/25 03:02:24;;;;;;;38.85;24.00;;;4.40;99.90;;;;;;5020418;28;20057;-84
2022/03/25 03:04:51;;;;;;;34.33;23.40;;;4.30;99.90;;;;;;5041838;28;20104;-83
2022/03/25 03:07:20;;;;;;;40.47;24.17;;;4.40;99.90;;;;;;5032516;28;20413;-84
2022/03/25 03:09:48;;;;;;;37.95;24.77;;;4.40;99.90;;;;;;5014412;28;20140;-81
2022/03/25 03:12:14;;;;;;;35.47;23.52;;;4.30;99.90;;;;;;5027513;28;20057;-81
2022/03/25 03:14:43;;;;;;;35.72;23.67;;;4.40;99.90;;;;;;4991054;28;20394;-81
2022/03/25 03:17:10;;;;;;;35.47;23.67;;;4.30;99.90;;;;;;5017353;28;20132;-81
2022/03/25 03:19:36;;;;;;;39.28;24.50;;;4.30;99.90;;;;;;5013368;28;20387;-80
2022/03/25 03:22:02;;;;;;;35.90;23.02;;;4.30;99.90;;;;;;5030253;28;20219;-80
2022/03/25 03:24:34;;;;;;;36.15;23.17;;;4.30;99.90;;;;;;5033002;28;20239;-81
2022/03/25 03:26:59;;;;;;;33.75;22.08;;;4.30;99.90;;;;;;4995534;28;20053;-81
2022/03/25 03:29:25;;;;;;;38.78;24.17;;;4.20;99.90;;;;;;5016145;28;20099;-80
2022/03/25 03:31:54;;;;;;;39.38;24.63;;;4.30;99.90;;;;;;5031958;28;20120;-80
2022/03/25 03:34:20;;;;;;;40.15;26.20;;;4.30;99.90;;;;;;5015715;28;20217;-80
2022/03/25 03:36:48;;;;;;;36.33;23.48;;;4.30;99.90;;;;;;5010470;28;20548;-80
2022/03/25 03:39:23;;;;;;;34.47;23.60;;;4.20;99.90;;;;;;4996372;28;20125;-81
2022/03/25 03:41:48;;;;;;;35.28;25.92;;;4.20;99.90;;;;;;4991671;28;20051;-80
2022/03/25 03:44:15;;;;;;;39.42;25.98;;;4.20;99.90;;;;;;5002462;28;20129;-80
2022/03/25 03:46:40;;;;;;;40.97;25.92;;;4.20;99.90;;;;;;5031110;28;20478;-81
2022/03/25 03:49:09;;;;;;;38.40;25.42;;;4.20;99.90;;;;;;5012993;28;20106;-81
2022/03/25 03:51:38;;;;;;;45.95;26.58;;;4.20;99.90;;;;;;4994208;28;20137;-81
2022/03/25 03:54:10;;;;;;;39.45;26.50;;;4.20;99.90;;;;;;5027669;28;20038;-80
2022/03/25 03:56:36;;;;;;;39.35;26.90;;;4.20;99.90;;;;;;5027159;28;20056;-81
2022/03/25 03:59:02;;;;;;;37.38;25.50;;;4.20;99.90;;;;;;4994602;28;20410;-80
2022/03/25 04:01:28;;;;;;;39.08;25.42;;;4.20;99.90;;;;;;5030647;28;20045;-81
2022/03/25 04:03:57;;;;;;;39.30;25.98;;;4.10;99.90;;;;;;5010771;28;20058;-80
2022/03/25 04:06:23;;;;;;;39.58;25.92;;;4.10;99.90;;;;;;5036062;28;20051;-80
2022/03/25 04:08:52;;;;;;;35.63;23.25;;;4.10;99.90;;;;;;5031794;28;20477;-81
2022/03/25 04:11:18;;;;;;;38.45;25.08;;;4.10;99.90;;;;;;4988175;28;20091;-80
2022/03/25 04:13:47;;;;;;;34.28;23.80;;;4.00;99.90;;;;;;4975160;28;20106;-80
2022/03/25 04:16:15;;;;;;;40.67;26.65;;;;;;;;;;4998778;28;20656;-80
2022/03/25 04:18:42;;;;;;;39.75;26.38;;;;;;;;;;5033782;28;20049;-80
2022/03/25 04:21:09;;;;;;;39.95;25.92;;;;;;;;;;5018294;28;20052;-81
2022/03/25 04:23:35;;;;;;;34.25;24.20;;;;;;;;;;5037913;28;20041;-81
2022/03/25 04:26:03;;;;;;;34.72;23.67;;;;;;;;;;5035658;28;20056;-81
2022/03/25 04:28:30;;;;;;;35.08;23.70;;;;;;;;;;5045485;28;20412;-81
2022/03/25 04:30:56;;;;;;;36.72;22.73;;;;;;;;;;5009749;28;20045;-80
2022/03/25 04:33:22;;;;;;;34.88;22.60;;;;;;;;;;5027460;28;20045;-80
2022/03/25 04:35:48;;;;;;;40.08;25.65;;;;;;;;;;5011633;28;20454;-81
2022/03/25 04:38:28;;;;;;;40.80;24.52;;;4.00;99.90;;;;;;5014447;28;20049;-81
2022/03/25 04:40:59;;;;;;;40.30;24.30;;;3.80;99.90;;;;;;5052851;28;20059;-80
2022/03/25 04:43:26;;;;;;;37.78;24.27;;;3.80;99.90;;;;;;5027658;28;20064;-80
2022/03/25 04:45:52;;;;;;;35.00;24.58;;;;;;;;;;5020972;28;20118;-81
2022/03/25 04:48:18;;;;;;;37.22;24.30;;;3.80;99.90;;;;;;5018569;28;20037;-81
2022/03/25 04:50:48;;;;;;;38.05;23.65;;;;;;;;;;5014112;28;20045;-81
2022/03/25 04:53:15;;;;;;;41.38;25.92;;;;;;;;;;5041579;28;20049;-81
2022/03/25 04:55:41;;;;;;;42.92;25.85;;;;;;;;;;5025355;28;20056;-81
2022/03/25 04:58:08;;;;;;;41.60;26.10;;;;;;;;;;5027123;28;20397;-81
2022/03/25 05:00:37;;;;;;;44.40;26.75;;;;;;;;;;5053167;28;20037;-83
2022/03/25 05:03:03;;;;;;;38.25;25.77;;;;;;;;;;5019881;28;20512;-83
2022/03/25 05:05:42;;;;;;;39.90;27.02;;;;;;;;;;5030584;28;20049;-83
2022/03/25 05:08:11;;;;;;;39.15;25.50;;;3.70;99.90;;;;;;5016298;28;20509;-83
2022/03/25 05:10:41;;;;;;;39.63;26.35;;;3.60;99.90;;;;;;5000721;28;20085;-83
2022/03/25 05:13:08;;;;;;;41.58;25.83;;;;;;;;;;5042336;28;20052;-83
2022/03/25 05:15:37;;;;;;;43.03;25.13;;;;;;;;;;5032860;28;20075;-85
2022/03/25 05:18:04;;;;;;;41.42;25.55;;;;;;;;;;5048800;28;20084;-85
2022/03/25 05:20:30;;;;;;;37.15;26.02;;;;;;;;;;5045780;28;20080;-82
2022/03/25 05:22:59;;;;;;;39.45;25.65;;;;;;;;;;5035533;28;20099;-83
2022/03/25 05:25:25;;;;;;;35.63;23.05;;;;;;;;;;5037994;28;20048;-84
2022/03/25 05:27:57;;;;;;;37.85;25.27;;;;;;;;;;5009987;28;20128;-83
2022/03/25 05:30:32;;;;;;;43.13;27.05;;;;;;;;;;4973469;28;20041;-83
2022/03/25 05:32:58;;;;;;;35.30;24.05;;;;;;;;;;5026441;28;20112;-84
2022/03/25 05:35:25;;;;;;;40.15;27.75;;;;;;;;;;5032479;28;20488;-79
2022/03/25 05:37:56;;;;;;;43.80;26.58;;;;;;;;;;5038017;28;20106;-79
2022/03/25 05:40:23;;;;;;;45.65;26.80;;;;;;;;;;5042449;28;20102;-80
2022/03/25 05:42:55;;;;;;;41.03;26.45;;;;;;;;;;5037700;28;20404;-80
2022/03/25 05:45:22;;;;;;;43.17;26.77;;;;;;;;;;5030352;28;20048;-80
2022/03/25 05:47:49;;;;;;;41.90;27.48;;;;;;;;;;5035283;28;20135;-84
2022/03/25 05:50:15;;;;;;;41.17;27.20;;;;;;;;;;5029725;28;20388;-84
2022/03/25 05:52:44;;;;;;;45.88;25.88;;;;;;;;;;5064034;28;20118;-84
2022/03/25 05:55:17;;;;;;;43.78;26.20;;;;;;;;;;5015745;28;20098;-84
2022/03/25 05:57:43;;;;;;;43.58;26.73;;;;;;;;;;5020243;28;20091;-84
2022/03/25 06:00:11;;;;;;;43.28;25.45;;;;;;;;;;5029445;28;20287;-84
2022/03/25 06:02:41;;;;;;;38.55;23.92;;;;;;;;;;5068738;28;20051;-84
2022/03/25 06:05:07;;;;;;;37.15;25.08;;;;;;;;;;5051770;28;20045;-84
2022/03/25 06:07:41;;;;;;;40.67;26.23;;;;;;;;;;5038125;28;20048;-84
2022/03/25 06:10:07;;;;;;;41.63;26.98;;;;;;;;;;5048328;28;20140;-84
2022/03/25 06:12:37;;;;;;;40.63;26.40;;;;;;;;;;5036417;28;20048;-80
2022/03/25 06:15:14;;;;;;;44.80;29.50;;;;;;;;;;5004860;28;20402;-79
2022/03/25 06:17:43;;;;;;;41.47;26.35;;;;;;;;;;5030354;28;20056;-78
2022/03/25 06:20:13;;;;;;;40.47;26.55;;;;;;;;;;5013623;28;20041;-78
2022/03/25 06:22:40;;;;;;;41.15;25.85;;;;;;;;;;5027028;28;20181;-78
2022/03/25 06:25:11;;;;;;;40.30;27.27;;;;;;;;;;5026925;28;20045;-78
2022/03/25 06:27:47;;;;;;;35.55;23.83;;;;;;;;;;5016839;28;20053;-78
2022/03/25 06:30:14;;;;;;;39.92;26.10;;;;;;;;;;5026820;28;20057;-78
2022/03/25 06:32:42;;;;;;;44.70;27.50;;;;;;;;;;4976825;28;20152;-82
2022/03/25 06:35:08;;;;;;;51.13;28.90;;;;;;;;;;5008664;28;20646;-81
2022/03/25 06:37:35;;;;;;;40.83;26.55;;;;;;;;;;4994312;28;20034;-79
2022/03/25 06:40:07;;;;;;;49.00;27.70;;;;;;;;;;4999084;28;20504;-84
2022/03/25 06:42:38;;;;;;;53.20;29.30;;;;;;;;;;5013317;28;20056;-79
2022/03/25 06:45:06;;;;;;;42.80;26.35;;;;;;;;;;5029400;28;20489;-79
2022/03/25 06:47:35;;;;;;;46.67;27.88;;;;;;;;;;5010000;28;20101;-81
2022/03/25 06:50:07;;;;;;;41.58;27.20;;;;;;;;;;4974252;28;20902;-80
2022/03/25 06:52:34;;;;;;;49.95;29.65;;;;;;;;;;4991358;28;20412;-80
2022/03/25 06:55:00;;;;;;;47.63;29.13;;;3.60;99.90;;;;;;5019596;28;20061;-80
2022/03/25 06:57:31;;;;;;;46.22;29.90;;;4.60;99.90;;;;;;4996337;28;20049;-80
2022/03/25 06:59:57;;;;;;;44.95;28.48;;;4.90;99.90;;;;;;4993281;28;20051;-81
2022/03/25 07:02:23;;;;;;;50.70;30.33;;;5.30;99.90;;;;;;5025914;28;20045;-81
2022/03/25 07:04:52;;;;;;;44.05;29.05;;;5.70;99.90;;;;;;5012051;28;20053;-81
2022/03/25 07:07:25;;;;;;;45.97;28.77;;;5.80;99.90;;;;;;4999312;28;20442;-78
2022/03/25 07:09:53;;;;;;;46.33;28.48;;;5.70;99.90;;;;;;5031907;28;20063;-78
2022/03/25 07:12:19;;;;;;;41.13;27.83;;;5.70;99.90;;;;;;5031020;28;20067;-83
2022/03/25 07:14:45;;;;;;;48.08;29.42;;;5.60;99.90;;;;;;5003060;28;20064;-80
2022/03/25 07:17:15;;;;;;;44.97;27.15;;;5.60;99.90;;;;;;5003677;28;20104;-81
2022/03/25 07:19:44;;;;;;;39.80;26.40;;;5.60;99.90;;;;;;5030787;28;20127;-84
2022/03/25 07:22:52;;;;;;;45.28;28.50;;;5.60;99.90;;;;;;5002929;28;20367;-84
2022/03/25 07:25:34;;;;;;;49.38;30.02;;;5.60;99.90;;;;;;5029226;28;20124;-85
2022/03/25 07:28:09;;;;;;;41.05;26.05;;;5.60;99.90;;;;;;5012954;28;20064;-85
2022/03/25 07:30:37;;;;;;;43.20;28.65;;;5.60;99.90;;;;;;5000310;28;20049;-84
2022/03/25 07:33:08;;;;;;;49.63;30.30;;;5.70;99.90;;;;;;5012674;28;20773;-81
2022/03/25 07:35:34;;;;;;;52.50;32.20;;;5.70;99.90;;;;;;4997418;28;20057;-81
2022/03/25 07:38:00;;;;;;;52.53;32.40;;;5.80;99.90;;;;;;5029260;28;20042;-81
2022/03/25 07:40:26;;;;;;;49.58;29.55;;;5.80;99.90;;;;;;5013266;28;20060;-81
2022/03/25 07:42:55;;;;;;;47.75;31.98;;;5.90;99.90;;;;;;4977765;28;20041;-84
2022/03/25 07:45:24;;;;;;;51.05;32.17;;;6.00;99.90;;;;;;4996913;28;20053;-84
2022/03/25 07:47:50;;;;;;;47.28;30.63;;;6.10;99.90;;;;;;4988908;28;20120;-84
2022/03/25 07:50:21;;;;;;;41.28;28.52;;;;;;;;;;5002726;28;20049;-85
2022/03/25 07:52:49;;;;;;;50.00;29.95;;;;;;;;;;5018976;28;20351;-84
2022/03/25 07:55:18;;;;;;;45.22;30.42;;;;;;;;;;5018799;28;20077;-83
2022/03/25 07:57:46;;;;;;;54.65;31.92;;;;;;;;;;5011068;28;20037;-83
2022/03/25 08:00:12;;;;;;;55.97;30.00;;;;;;;;;;5010835;28;20049;-83
2022/03/25 08:02:39;;;;;;;46.65;29.95;;;;;;;;;;5025626;28;20048;-83
2022/03/25 08:05:07;;;;;;;45.33;28.52;;;6.20;99.90;;;;;;5006656;28;20036;-83
2022/03/25 08:07:39;;;;;;;44.92;26.50;;;;;;;;;;5033571;28;20112;-83
2022/03/25 08:10:06;;;;;;;40.77;25.67;;;;;;;;;;5003747;28;20041;-83
2022/03/25 08:12:32;;;;;;;43.15;25.55;;;;;;;;;;5019161;28;20057;-82
2022/03/25 08:14:58;;;;;;;40.25;25.65;;;;;;;;;;5033072;28;20137;-82
2022/03/25 08:17:24;;;;;;;41.38;26.73;;;;;;;;;;4996301;28;20050;-82
2022/03/25 08:19:54;;;;;;;42.15;26.88;;;;;;;;;;4998245;28;20112;-82
2022/03/25 08:22:20;;;;;;;39.53;24.00;;;;;;;;;;4981405;28;20049;-82
2022/03/25 08:27:51;;;;;;;38.13;21.95;;;6.70;99.90;;;;;;4994434;28;20448;-80
2022/03/25 08:30:16;;;;;;;33.30;20.77;;;7.50;99.90;;;;;;5006540;28;20133;-81
2022/03/25 08:32:48;;;;;;;36.60;21.35;;;7.60;99.90;;;;;;4969428;28;20220;-81
2022/03/25 08:35:14;;;;;;;35.60;22.25;;;7.60;99.90;;;;;;4990178;28;20473;-81
2022/03/25 08:37:43;;;;;;;33.58;20.75;;;;;;;;;;4974028;28;20406;-80
2022/03/25 08:40:09;;;;;;;29.02;19.52;;;;;;;;;;5026866;28;20141;-82
2022/03/25 08:42:35;;;;;;;31.75;18.67;;;7.70;99.90;;;;;;5003306;28;20041;-81
2022/03/25 08:45:01;;;;;;;35.30;20.85;;;;;;;;;;4978512;28;20712;-81
2022/03/25 08:47:30;;;;;;;35.88;20.73;;;;;;;;;;5026792;28;20076;-84
2022/03/25 08:49:57;;;;;;;33.45;19.77;;;;;;;;;;5031121;28;20037;-90
2022/03/25 08:52:23;;;;;;;29.58;18.67;;;;;;;;;;4993101;28;20054;-90
2022/03/25 08:54:49;;;;;;;29.35;17.10;;;;;;;;;;5016268;28;20097;-90
2022/03/25 08:57:15;;;;;;;31.52;20.60;;;8.00;99.90;;;;;;5003411;28;20056;-90
2022/03/25 08:59:41;;;;;;;30.63;19.30;;;8.50;99.90;;;;;;4991163;28;20057;-89
2022/03/25 09:02:06;;;;;;;29.88;18.20;;;8.50;99.90;;;;;;5019118;28;20635;-89
2022/03/25 09:04:32;;;;;;;27.33;17.13;;;8.60;99.90;;;;;;5000444;28;20045;-87
2022/03/25 09:07:00;;;;;;;30.45;17.35;;;8.70;99.90;;;;;;5037013;28;20147;-86
2022/03/25 09:09:26;;;;;;;30.30;18.30;;;8.80;99.90;;;;;;5015100;28;20049;-79
2022/03/25 09:11:54;;;;;;;40.33;18.80;;;8.90;99.90;;;;;;5035443;28;20081;-80
2022/03/25 09:14:20;;;;;;;31.88;18.55;;;9.00;99.90;;;;;;5037482;28;20435;-80
2022/03/25 09:16:52;;;;;;;29.33;18.75;;;9.10;99.90;;;;;;5038227;28;20164;-80
2022/03/25 09:19:18;;;;;;;30.98;18.38;;;9.20;99.90;;;;;;5003058;28;20054;-85
2022/03/25 09:21:43;;;;;;;30.67;17.58;;;9.30;99.90;;;;;;5016636;28;20041;-80
2022/03/25 09:24:09;;;;;;;28.75;18.00;;;9.30;99.90;;;;;;5033158;28;20049;-80
2022/03/25 09:26:35;;;;;;;26.58;16.80;;;;;;;;;;5016814;28;20046;-80
2022/03/25 09:29:06;;;;;;;25.98;16.83;;;;;;;;;;4995417;28;20083;-80
2022/03/25 09:31:32;;;;;;;29.13;18.15;;;;;;;;;;5010091;28;20154;-79
2022/03/25 09:35:08;;;;;;;29.92;17.85;;;;;;;;;;5022913;28;20045;-79
2022/03/25 09:36:44;;;;;;;28.42;17.98;;;;;;;;;;5014980;28;20135;-84
2022/03/25 09:39:11;;;;;;;24.23;15.98;;;;;;;;;;5022945;28;20049;-84
2022/03/25 09:41:40;;;;;;;36.20;17.33;;;;;;;;;;5013257;28;20111;-83
2022/03/25 09:44:09;;;;;;;21.92;15.80;;;;;;;;;;5030308;28;20077;-84
2022/03/25 09:46:41;;;;;;;22.85;15.63;;;;;;;;;;5013251;28;20056;-84
2022/03/25 09:49:08;;;;;;;27.63;15.80;;;;;;;;;;5032255;28;20045;-84
2022/03/25 09:51:34;;;;;;;23.00;16.40;;;;;;;;;;5038551;28;20596;-84
2022/03/25 09:54:05;;;;;;;28.05;16.77;;;;;;;;;;5029322;28;20071;-84
2022/03/25 09:56:32;;;;;;;24.52;15.93;;;;;;;;;;5002601;28;20065;-84
2022/03/25 09:58:58;;;;;;;20.48;15.07;;;;;;;;;;5018784;28;20053;-87
2022/03/25 10:01:25;;;;;;;25.60;15.73;;;;;;;;;;4978751;28;20058;-86
2022/03/25 10:03:54;;;;;;;24.63;16.00;;;;;;;;;;5004002;28;20141;-85
2022/03/25 10:06:20;;;;;;;24.90;15.88;;;;;;;;;;4973850;28;20045;-86
2022/03/25 10:08:54;;;;;;;25.70;16.38;;;;;;;;;;4999557;28;20402;-86
2022/03/25 10:11:30;;;;;;;23.33;17.10;;;;;;;;;;5012942;28;20482;-86
2022/03/25 10:14:15;;;;;;;23.15;14.38;;;;;;;;;;5021244;28;20045;-86
2022/03/25 10:16:42;;;;;;;19.30;14.48;;;;;;;;;;5013381;28;20504;-86
2022/03/25 10:19:21;;;;;;;18.83;13.15;;;;;;;;;;5013505;28;20125;-86
2022/03/25 10:22:01;;;;;;;22.33;14.43;;;;;;;;;;5022848;28;20049;-86
2022/03/25 10:24:35;;;;;;;25.70;15.50;;;;;;;;;;5003521;28;20400;-85
2022/03/25 10:27:06;;;;;;;20.52;13.90;;;;;;;;;;5010825;28;20037;-86
2022/03/25 10:29:36;;;;;;;23.05;15.00;;;;;;;;;;5018702;28;20138;-87
2022/03/25 10:32:09;;;;;;;26.15;14.82;;;;;;;;;;5014678;28;20065;-86
2022/03/25 10:34:39;;;;;;;26.20;16.30;;;;;;;;;;5017795;28;20049;-86
2022/03/25 10:37:06;;;;;;;28.10;19.60;;;;;;;;;;5034514;28;20053;-86
2022/03/25 10:39:36;;;;;;;24.77;15.30;;;;;;;;;;5011575;28;20045;-81
2022/03/25 10:42:06;;;;;;;28.48;14.63;;;;;;;;;;5010546;28;20053;-88
2022/03/25 10:44:43;;;;;;;24.73;15.30;;;;;;;;;;5031281;28;20045;-87
2022/03/25 10:47:15;;;;;;;22.90;14.38;;;;;;;;;;5021227;28;20099;-87
2022/03/25 10:49:43;;;;;;;26.42;15.05;;;;;;;;;;5034581;28;20052;-87
2022/03/25 10:52:22;;;;;;;22.83;14.45;;;;;;;;;;5007552;28;20758;-87
2022/03/25 10:54:48;;;;;;;22.48;13.70;;;;;;;;;;5011648;28;20045;-88
2022/03/25 10:57:17;;;;;;;24.35;14.13;;;;;;;;;;5008669;28;20398;-86
2022/03/25 10:59:58;;;;;;;22.63;14.00;;;;;;;;;;5009691;28;20143;-87
2022/03/25 11:02:25;;;;;;;22.75;13.93;;;;;;;;;;4982942;28;20064;-87
2022/03/25 11:04:51;;;;;;;19.13;12.75;;;;;;;;;;4974637;28;20084;-86
2022/03/25 11:07:22;;;;;;;20.05;12.88;;;;;;;;;;5028121;28;20080;-86
2022/03/25 11:09:50;;;;;;;25.88;13.57;;;;;;;;;;5010937;28;20060;-86
2022/03/25 11:12:16;;;;;;;22.50;12.35;;;;;;;;;;5001158;28;20053;-82
2022/03/25 11:14:42;;;;;;;22.70;13.68;;;;;;;;;;5021741;28;20326;-83
2022/03/25 11:17:09;;;;;;;18.40;12.98;;;;;;;;;;5003704;28;20081;-80
2022/03/25 11:19:38;;;;;;;20.13;12.13;;;;;;;;;;5038337;28;20329;-87
2022/03/25 11:22:12;;;;;;;24.42;11.45;;;;;;;;;;5013224;28;20106;-87
2022/03/25 11:24:40;;;;;;;32.10;13.63;;;;;;;;;;5006884;28;20513;-87
2022/03/25 11:27:12;;;;;;;17.98;11.05;;;;;;;;;;5027486;28;20079;-82
2022/03/25 11:29:48;;;;;;;18.20;11.30;;;;;;;;;;5002363;28;20351;-82
2022/03/25 11:32:15;;;;;;;17.55;11.65;;;;;;;;;;5018585;28;20124;-87
2022/03/25 11:34:47;;;;;;;14.35;10.55;;;;;;;;;;4995738;28;20069;-86
2022/03/25 11:37:27;;;;;;;16.60;11.52;;;;;;;;;;5014493;28;20514;-83
2022/03/25 11:40:11;;;;;;;19.88;12.20;;;;;;;;;;5002996;28;20128;-83
2022/03/25 11:42:51;;;;;;;26.95;12.35;;;;;;;;;;4994167;28;20096;-83
2022/03/25 11:45:34;;;;;;;20.02;12.88;;;;;;;;;;4994771;28;20061;-86
2022/03/25 11:48:00;;;;;;;19.48;12.35;;;;;;;;;;5013413;28;20365;-86
2022/03/25 11:50:30;;;;;;;21.73;14.00;;;;;;;;;;5019503;28;20401;-86
2022/03/25 11:52:57;;;;;;;21.17;14.45;;;;;;;;;;5013397;28;20049;-86
2022/03/25 11:55:23;;;;;;;25.17;16.30;;;;;;;;;;5005846;28;20045;-82
2022/03/25 11:58:13;;;;;;;25.50;16.08;;;;;;;;;;4979404;28;20669;-86
2022/03/25 12:00:40;;;;;;;27.45;18.15;;;;;;;;;;5002861;28;20037;-86
2022/03/25 12:03:06;;;;;;;24.77;18.65;;;;;;;;;;5028932;28;20045;-86
2022/03/25 12:05:33;;;;;;;28.45;17.10;;;;;;;;;;4965243;28;20073;-86
2022/03/25 12:08:18;;;;;;;25.15;17.15;;;;;;;;;;5011631;28;20056;-86
2022/03/25 12:10:45;;;;;;;24.25;17.83;;;;;;;;;;5019422;28;20156;-86
2022/03/25 12:13:11;;;;;;;22.88;15.23;;;;;;;;;;5002741;28;20132;-86
2022/03/25 12:15:44;;;;;;;23.98;15.20;;;;;;;;;;4995748;28;20520;-86
2022/03/25 12:18:35;;;;;;;23.38;15.38;;;;;;;;;;5023864;28;20049;-85
2022/03/25 12:21:26;;;;;;;27.95;18.00;;;;;;;;;;4986107;28;20054;-81
2022/03/25 12:23:56;;;;;;;26.05;17.40;;;;;;;;;;4983690;28;20553;-81
2022/03/25 12:26:29;;;;;;;29.52;16.52;;;;;;;;;;4976395;28;20184;-84
2022/03/25 12:29:04;;;;;;;31.83;18.42;;;;;;;;;;4993817;28;20078;-84
2022/03/25 12:31:30;;;;;;;25.00;17.67;;;;;;;;;;4981753;28;20514;-84
2022/03/25 12:33:57;;;;;;;34.67;19.52;;;;;;;;;;4988387;28;20314;-84
2022/03/25 12:36:34;;;;;;;29.50;18.92;;;;;;;;;;4973953;28;20049;-85
2022/03/25 12:39:01;;;;;;;34.17;19.27;;;;;;;;;;4985743;28;20525;-79
2022/03/25 12:41:28;;;;;;;34.65;21.83;;;;;;;;;;4960824;28;20049;-79
2022/03/25 12:43:59;;;;;;;28.90;18.15;;;;;;;;;;4970564;28;20490;-79
2022/03/25 12:46:29;;;;;;;32.53;21.45;;;;;;;;;;4986299;28;20046;-79
2022/03/25 12:49:02;;;;;;;29.50;18.40;;;;;;;;;;4994271;28;20053;-79
2022/03/25 12:51:29;;;;;;;28.27;18.75;;;;;;;;;;5006590;28;20058;-79
2022/03/25 12:53:55;;;;;;;29.38;18.75;;;;;;;;;;5011366;28;20046;-81
2022/03/25 12:56:23;;;;;;;28.17;20.00;;;;;;;;;;4995230;28;20080;-80
2022/03/25 12:58:52;;;;;;;27.08;18.40;;;;;;;;;;4991056;28;20153;-80
2022/03/25 13:01:22;;;;;;;25.70;17.95;;;;;;;;;;5013583;28;20045;-80
2022/03/25 13:03:48;;;;;;;29.85;19.92;;;;;;;;;;4988592;28;20054;-80
2022/03/25 13:06:16;;;;;;;29.08;19.85;;;;;;;;;;4976646;28;20112;-81
2022/03/25 13:08:46;;;;;;;26.67;17.88;;;;;;;;;;4996981;28;20395;-81
2022/03/25 13:11:13;;;;;;;29.73;16.52;;;;;;;;;;5014236;28;20045;-81
2022/03/25 13:13:39;;;;;;;26.52;17.38;;;;;;;;;;4984867;28;20072;-81
2022/03/25 13:16:09;;;;;;;28.35;16.60;;;;;;;;;;4977474;28;20129;-84
2022/03/25 13:18:39;;;;;;;28.13;18.23;;;;;;;;;;4993639;28;20088;-82
2022/03/25 13:21:06;;;;;;;27.83;18.48;;;;;;;;;;5016944;28;20060;-80
2022/03/25 13:23:34;;;;;;;29.10;17.05;;;;;;;;;;5038377;28;20627;-80
2022/03/25 13:26:02;;;;;;;23.88;15.75;;;;;;;;;;5034346;28;20097;-79
2022/03/25 13:28:32;;;;;;;26.83;17.35;;;;;;;;;;5029260;28;20588;-79
2022/03/25 13:31:04;;;;;;;29.63;17.10;;;;;;;;;;5005262;28;20060;-79
2022/03/25 13:33:31;;;;;;;33.67;19.23;;;;;;;;;;5029658;28;20122;-80
2022/03/25 13:36:02;;;;;;;28.92;18.80;;;;;;;;;;5039536;28;20053;-80
2022/03/25 13:38:41;;;;;;;34.03;19.77;;;;;;;;;;5022490;28;20088;-80
2022/03/25 13:41:13;;;;;;;26.00;18.50;;;;;;;;;;5007028;28;20045;-79
2022/03/25 13:43:46;;;;;;;23.80;14.80;;;;;;;;;;5045162;28;20160;-83
2022/03/25 13:46:24;;;;;;;34.50;18.30;;;;;;;;;;5015843;28;20053;-83
2022/03/25 13:48:52;;;;;;;28.02;18.60;;;;;;;;;;5005623;28;20049;-84
2022/03/25 13:51:35;;;;;;;29.63;18.65;;;;;;;;;;5033626;28;20073;-84
2022/03/25 13:54:01;;;;;;;;;;;;;;;;;;5008010;28;20052;-84
2022/03/25 13:56:34;;;;;;;30.38;20.70;;;;;;;;;;4997266;28;20349;-85